Time;durP1;ratioP1;P1;durP2;ratioP2;P2;SDS_P1;SDS_P2;PMS_P1;PMS_P2;Temp;Humidity;BMP_temperature;BMP_pressure;BME280_temperature;BME280_humidity;BME280_pressure;Samples;Min_cycle;Max_cycle;Signal;HPM_P1;HPM_P2
2022/03/01 00:02:49;;;;;;;;;;;-1.90;99.90;;;-3.01;64.03;96838.88;10549793;28;1772;-73
2022/03/01 00:07:54;;;;;;;;;;;-1.90;99.90;;;-3.12;64.91;96834.72;10558931;28;1957;-74
2022/03/01 00:12:57;;;;;;;;;;;-2.00;99.90;;;-3.14;64.70;96835.91;10557160;28;1730;-72
2022/03/01 00:18:01;;;;;;;;;;;-2.00;99.90;;;-3.22;65.30;96831.44;10549935;28;1820;-73
2022/03/01 00:23:04;;;;;;;;;;;-2.10;99.90;;;-3.26;64.94;96836.19;10589385;28;1811;-73
2022/03/01 00:28:09;;;;;;;;;;;-2.10;99.90;;;-3.20;64.66;96826.03;10564148;28;1973;-72
2022/03/01 00:33:12;;;;;;;;;;;-2.10;99.90;;;-3.24;64.60;96833.44;10553698;28;1917;-73
2022/03/01 00:38:16;;;;;;;;;;;-2.20;99.90;;;-3.28;64.97;96830.28;10550766;28;2097;-72
2022/03/01 00:43:21;;;;;;;;;;;-2.20;99.90;;;-3.27;64.62;96818.78;10551754;28;1977;-71
2022/03/01 00:48:24;;;;;;;;;;;-2.20;99.90;;;-3.35;65.02;96818.78;10549888;27;1898;-74
2022/03/01 00:53:27;;;;;;;;;;;-2.20;99.90;;;-3.47;65.55;96812.16;10554209;28;1857;-71
2022/03/01 00:58:30;;;;;;;;;;;-2.30;99.90;;;-3.46;64.99;96807.72;10555713;28;1903;-73
2022/03/01 01:03:33;;;;;;;;;;;-2.30;99.90;;;-3.46;65.36;96798.03;10555457;28;1838;-70
2022/03/01 01:08:39;;;;;;;;;;;-2.40;99.90;;;-3.53;65.24;96797.03;10555057;28;2042;-71
2022/03/01 01:13:44;;;;;;;;;;;-2.40;99.90;;;-3.54;65.32;96790.13;10558562;28;1964;-72
2022/03/01 01:18:52;;;;;;;;;;;;;;;-3.62;65.51;96787.50;10579840;28;1723;-72
2022/03/01 01:23:56;;;;;;;;;;;;;;;-3.72;66.58;96792.88;10562514;28;1821;-72
2022/03/01 01:28:59;;;;;;;;;;;-2.60;99.90;;;-3.72;66.00;96786.81;10549807;28;1909;-72
2022/03/01 01:34:02;;;;;;;;;;;-2.70;99.90;;;-3.76;65.88;96785.47;10543571;28;1938;-72
2022/03/01 01:39:06;;;;;;;;;;;-2.70;99.90;;;-3.89;66.13;96785.91;10549674;28;2128;-72
2022/03/01 01:44:09;;;;;;;;;;;-2.70;99.90;;;-3.95;66.61;96787.38;10548912;28;1900;-74
2022/03/01 01:49:12;;;;;;;;;;;-2.90;99.90;;;-3.99;67.67;96775.56;10551313;28;2075;-73
2022/03/01 01:54:14;;;;;;;;;;;-2.80;99.90;;;-4.03;66.85;96765.50;10545977;28;1884;-72
2022/03/01 01:59:19;;;;;;;;;;;-3.00;99.90;;;-4.01;67.46;96771.41;10546405;28;1931;-72
2022/03/01 02:04:21;;;;;;;;;;;-2.90;99.90;;;-4.06;67.98;96766.66;10556819;28;1767;-70
2022/03/01 02:09:24;;;;;;;;;;;-3.00;99.90;;;-4.03;67.64;96763.72;10542311;28;2002;-72
2022/03/01 02:14:27;;;;;;;;;;;-3.00;99.90;;;-4.11;67.72;96753.19;10557128;28;1951;-72
2022/03/01 02:19:31;;;;;;;;;;;-3.00;99.90;;;-4.11;68.23;96751.38;10548096;28;1962;-72
2022/03/01 02:24:45;;;;;;;;;;;-3.00;99.90;;;-4.15;68.36;96744.78;10547367;28;1875;-71
2022/03/01 02:29:49;;;;;;;;;;;-3.10;99.90;;;-4.21;68.58;96739.34;10546271;28;1944;-73
2022/03/01 02:34:57;;;;;;;;;;;;;;;-4.25;69.04;96738.03;10560353;28;1927;-72
2022/03/01 02:40:05;;;;;;;;;;;;;;;-4.30;69.51;96733.25;10554136;28;2043;-73
2022/03/01 02:45:10;;;;;;;;;;;-3.30;99.90;;;-4.32;69.46;96737.00;10558761;28;1912;-72
2022/03/01 02:50:12;;;;;;;;;;;-3.30;99.90;;;-4.30;69.97;96733.25;10554597;28;1972;-71
2022/03/01 02:55:15;;;;;;;;;;;-3.30;99.90;;;-4.31;69.85;96744.72;10560413;28;2169;-73
2022/03/01 03:00:18;;;;;;;;;;;-3.20;99.90;;;-4.39;71.11;96737.66;10556619;28;1943;-70
2022/03/01 03:05:21;;;;;;;;;;;-3.40;99.90;;;-4.39;70.44;96735.03;10561698;28;1983;-73
2022/03/01 03:10:24;;;;;;;;;;;-3.40;99.90;;;-4.48;69.61;96728.06;10552610;27;1995;-73
2022/03/01 03:15:27;;;;;;;;;;;-3.30;99.90;;;-4.52;71.13;96731.97;10563162;28;2153;-72
2022/03/01 03:20:30;;;;;;;;;;;-3.40;99.90;;;-4.54;70.98;96728.69;10557113;28;2078;-71
2022/03/01 03:25:34;;;;;;;;;;;-3.40;99.90;;;-4.49;71.46;96718.56;10566544;28;1919;-73
2022/03/01 03:30:36;;;;;;;;;;;-3.40;99.90;;;-4.52;71.04;96724.09;10550548;28;2106;-73
2022/03/01 03:35:39;;;;;;;;;;;-3.50;99.90;;;-4.59;72.14;96714.38;10560834;28;2206;-70
2022/03/01 03:40:42;;;;;;;;;;;-3.50;99.90;;;-4.62;71.71;96710.28;10553359;28;2074;-73
2022/03/01 03:45:46;;;;;;;;;;;-3.50;99.90;;;-4.66;72.69;96709.75;10555880;28;1922;-71
2022/03/01 03:50:49;;;;;;;;;;;-3.60;99.90;;;-4.82;72.08;96704.44;10555579;28;2193;-74
2022/03/01 03:55:52;;;;;;;;;;;;;;;-4.88;73.17;96709.50;10547914;28;1976;-72
2022/03/01 04:00:55;;;;;;;;;;;;;;;-4.84;72.92;96701.13;10558685;28;1994;-73
2022/03/01 04:05:59;;;;;;;;;;;;;;;-4.88;73.87;96702.44;10564969;28;1924;-72
2022/03/01 04:11:02;;;;;;;;;;;-3.80;99.90;;;-4.92;73.54;96693.22;10545771;28;2024;-72
2022/03/01 04:16:05;;;;;;;;;;;;;;;-4.97;73.57;96705.97;10553159;28;1911;-72
2022/03/01 04:21:10;;;;;;;;;;;;;;;-4.99;73.81;96714.00;10551815;28;2357;-72
2022/03/01 04:26:14;;;;;;;;;;;;;;;-5.03;74.31;96698.72;10551810;28;1924;-72
2022/03/01 04:31:17;;;;;;;;;;;;;;;-5.09;75.54;96704.56;10547239;28;1996;-71
2022/03/01 04:36:20;;;;;;;;;;;;;;;-5.07;76.09;96700.84;10554491;28;2155;-71
2022/03/01 04:41:24;;;;;;;;;;;;;;;-5.10;75.10;96703.75;10544554;28;2100;-72
2022/03/01 04:46:27;;;;;;;;;;;;;;;-5.07;75.27;96700.03;10549717;28;1998;-72
2022/03/01 04:51:31;;;;;;;;;;;;;;;-5.11;75.51;96686.38;10565263;28;1985;-73
2022/03/01 04:56:34;;;;;;;;;;;;;;;-5.12;75.90;96687.38;10552370;28;1972;-73
2022/03/01 05:01:37;;;;;;;;;;;-4.20;99.90;;;-5.23;76.44;96695.47;10553983;28;2038;-72
2022/03/01 05:06:44;;;;;;;;;;;-4.10;99.90;;;-5.21;76.22;96694.34;10548560;28;1963;-72
2022/03/01 05:11:47;;;;;;;;;;;;;;;-5.21;75.93;96693.53;10553729;28;2021;-71
2022/03/01 05:16:50;;;;;;;;;;;-4.10;99.90;;;-5.24;76.04;96699.88;10552052;28;1885;-73
2022/03/01 05:21:54;;;;;;;;;;;-4.20;99.90;;;-5.27;77.13;96709.88;10552146;28;1923;-72
2022/03/01 05:26:57;;;;;;;;;;;-4.20;99.90;;;-5.33;77.26;96713.09;10542920;28;1931;-72
2022/03/01 05:32:01;;;;;;;;;;;-4.20;99.90;;;-5.41;78.24;96702.53;10563008;22;3336;-69
2022/03/01 05:37:05;;;;;;;;;;;-4.30;99.90;;;-5.35;77.13;96717.66;10525592;28;2029;-70
2022/03/01 05:42:08;;;;;;;;;;;-4.30;99.90;;;-5.37;76.71;96719.59;10528832;28;2032;-70
2022/03/01 05:47:11;;;;;;;;;;;-4.40;99.90;;;-5.43;77.97;96731.50;10510866;28;1889;-69
2022/03/01 05:52:14;;;;;;;;;;;-4.20;99.90;;;-5.39;76.43;96737.28;10517943;28;1961;-69
2022/03/01 05:57:17;;;;;;;;;;;-4.20;99.90;;;-5.38;77.18;96739.75;10523136;28;2176;-69
2022/03/01 06:02:20;;;;;;;;;;;-4.30;99.90;;;-5.43;77.33;96749.84;10521034;28;1862;-69
2022/03/01 06:07:23;;;;;;;;;;;-4.40;99.90;;;-5.36;76.43;96753.50;10512953;28;1946;-69
2022/03/01 06:12:26;;;;;;;;;;;-4.20;99.90;;;-5.26;76.87;96748.22;10521553;28;1915;-69
2022/03/01 06:17:29;;;;;;;;;;;;;;;-5.19;75.03;96744.81;10523553;28;1913;-69
2022/03/01 06:22:33;;;;;;;;;;;;;;;-5.14;75.11;96747.00;10526721;28;1956;-69
2022/03/01 06:27:36;;;;;;;;;;;-4.10;99.90;;;-5.11;74.76;96765.03;10523452;28;2115;-70
2022/03/01 06:32:38;;;;;;;;;;;-4.40;99.90;;;-5.07;75.23;96752.47;10516387;28;1922;-69
2022/03/01 06:37:41;;;;;;;;;;;-4.70;99.90;;;-4.97;74.37;96743.50;10522624;28;2021;-69
2022/03/01 06:42:47;;;;;;;;;;;-3.80;99.90;;;-4.80;74.67;96754.13;10528795;28;1929;-69
2022/03/01 06:47:49;;;;;;;;;;;-3.90;99.90;;;-4.72;72.12;96760.22;10516517;28;1918;-69
2022/03/01 06:52:53;;;;;;;;;;;-3.60;99.90;;;-4.69;72.89;96767.00;10525098;28;1951;-69
2022/03/01 06:57:58;;;;;;;;;;;;;;;-4.58;71.76;96779.84;10515821;28;1945;-69
2022/03/01 07:03:01;;;;;;;;;;;;;;;-4.40;71.02;96775.34;10516093;28;2100;-69
2022/03/01 07:08:05;;;;;;;;;;;;;;;-4.18;69.65;96776.63;10519051;28;2096;-69
2022/03/01 07:13:09;;;;;;;;;;;;;;;-4.04;68.28;96775.19;10524534;28;1969;-69
2022/03/01 07:18:12;;;;;;;;;;;;;;;-3.87;67.27;96765.59;10535493;28;1885;-70
2022/03/01 07:23:15;;;;;;;;;;;;;;;-3.73;67.42;96767.59;10523628;28;1894;-70
2022/03/01 07:28:19;;;;;;;;;;;;;;;-3.51;66.97;96784.56;10519511;28;2056;-70
2022/03/01 07:33:22;;;;;;;;;;;;;;;-3.27;66.75;96771.44;10518337;28;1906;-70
2022/03/01 07:38:26;;;;;;;;;;;;;;;-3.09;65.36;96763.41;10518043;28;1894;-70
2022/03/01 07:43:30;;;;;;;;;;;;;;;-2.93;63.48;96767.84;10515015;28;1945;-71
2022/03/01 07:48:34;;;;;;;;;;;;;;;-2.87;62.43;96769.81;10524924;28;1902;-71
2022/03/01 07:53:38;;;;;;;;;;;;;;;-2.77;62.80;96759.94;10519427;28;1946;-70
2022/03/01 07:58:43;;;;;;;;;;;;;;;-2.66;62.32;96760.59;10525916;28;1841;-70
2022/03/01 08:03:46;;;;;;;;;;;;;;;-2.54;62.17;96754.81;10517339;28;1803;-70
2022/03/01 08:08:49;;;;;;;;;;;;;;;-2.20;60.16;96762.47;10524241;28;1853;-70
2022/03/01 08:13:53;;;;;;;;;;;;;;;-1.93;59.90;96761.19;10525298;28;1918;-70
2022/03/01 08:18:56;;;;;;;;;;;;;;;-1.73;58.98;96751.06;10520675;28;1799;-69
2022/03/01 08:23:59;;;;;;;;;;;;;;;-1.46;57.74;96755.06;10516695;28;1820;-70
2022/03/01 08:29:03;;;;;;;;;;;;;;;-1.26;55.99;96763.31;10514068;28;1778;-70
2022/03/01 08:34:06;;;;;;;;;;;;;;;-1.25;56.11;96774.69;10521743;28;1969;-70
2022/03/01 08:39:09;;;;;;;;;;;;;;;-1.21;56.49;96763.63;10516241;28;1839;-70
2022/03/01 08:44:13;;;;;;;;;;;;;;;-1.37;56.21;96763.72;10516041;28;1857;-71
2022/03/01 08:49:17;;;;;;;;;;;;;;;-1.36;56.08;96768.00;10518869;28;1800;-70
2022/03/01 08:54:22;;;;;;;;;;;;;;;-1.12;55.89;96761.75;10513626;28;2317;-70
2022/03/01 08:59:25;;;;;;;;;;;;;;;-0.91;55.88;96763.72;10512594;28;1878;-70
2022/03/01 09:04:29;;;;;;;;;;;;;;;-1.02;56.60;96758.84;10517254;28;1819;-70
2022/03/01 09:09:32;;;;;;;;;;;;;;;-0.98;55.93;96747.78;10512850;28;1887;-70
2022/03/01 09:14:35;;;;;;;;;;;0.00;99.90;;;-0.71;54.83;96741.09;10514210;28;1953;-69
2022/03/01 09:19:41;;;;;;;;;;;0.00;99.90;;;-0.65;55.08;96742.19;10517188;28;1843;-70
2022/03/01 09:24:45;;;;;;;;;;;;;;;-0.67;54.02;96738.94;10515992;28;1838;-70
2022/03/01 09:29:49;;;;;;;;;;;;;;;-0.37;53.00;96740.63;10511803;28;1814;-69
2022/03/01 09:34:52;;;;;;;;;;;;;;;-0.27;52.39;96722.66;10521074;28;1930;-69
2022/03/01 09:39:55;;;;;;;;;;;;;;;-0.10;52.60;96728.56;10506974;28;1843;-69
2022/03/01 09:44:59;;;;;;;;;;;;;;;-0.03;52.14;96715.44;10517457;28;1827;-72
2022/03/01 09:50:02;;;;;;;;;;;0.80;99.90;;;0.28;50.46;96706.47;10517567;28;1846;-69
2022/03/01 09:55:04;;;;;;;;;;;1.00;99.90;;;0.24;50.11;96704.19;10523000;28;1925;-68
2022/03/01 10:00:07;;;;;;;;;;;1.10;99.90;;;0.53;50.42;96692.69;10521268;28;1807;-69
2022/03/01 10:05:12;;;;;;;;;;;1.30;99.90;;;1.05;49.03;96696.84;10524237;28;1830;-68
2022/03/01 10:10:16;;;;;;;;;;;1.50;99.90;;;1.03;48.72;96690.94;10511379;28;1894;-70
2022/03/01 10:15:20;;;;;;;;;;;1.80;99.90;;;1.17;48.39;96693.69;10529102;28;1835;-70
2022/03/01 10:20:23;;;;;;;;;;;2.00;99.90;;;1.41;46.93;96685.31;10523741;28;1731;-69
2022/03/01 10:25:29;;;;;;;;;;;2.20;99.90;;;1.11;47.39;96679.38;10513620;28;1844;-70
2022/03/01 10:30:37;;;;;;;;;;;2.20;99.90;;;1.35;47.05;96678.94;10529536;28;1987;-70
2022/03/01 10:35:40;;;;;;;;;;;2.20;99.90;;;1.78;46.11;96670.84;10517729;28;1810;-70
2022/03/01 10:40:44;;;;;;;;;;;2.50;99.90;;;2.04;44.42;96656.91;10516837;28;1854;-69
2022/03/01 10:45:47;;;;;;;;;;;2.80;99.90;;;2.06;42.83;96657.50;10520538;28;1923;-69
2022/03/01 10:50:50;;;;;;;;;;;2.70;99.90;;;2.31;42.97;96647.19;10516298;28;1983;-70
2022/03/01 10:55:53;;;;;;;;;;;3.00;99.90;;;2.32;40.31;96629.44;10514087;28;1869;-69
2022/03/01 11:00:56;;;;;;;;;;;3.20;99.90;;;2.52;39.75;96627.63;10516737;28;1835;-70
2022/03/01 11:06:00;;;;;;;;;;;3.40;99.90;;;2.61;39.88;96609.69;10522906;28;1862;-69
2022/03/01 11:11:04;;;;;;;;;;;3.40;99.90;;;2.89;37.65;96598.84;10515318;28;1903;-70
2022/03/01 11:16:06;;;;;;;;;;;3.80;99.90;;;2.81;36.93;96599.06;10513815;28;1866;-70
2022/03/01 11:21:10;;;;;;;;;;;3.70;99.90;;;2.83;35.66;96586.41;10521812;28;1814;-69
2022/03/01 11:26:12;;;;;;;;;;;3.80;99.90;;;2.84;35.67;96580.06;10523789;28;1887;-71
2022/03/01 11:36:23;;;;;;;;;;;4.00;98.80;;;3.15;35.22;96556.31;10444503;28;2007;-71
2022/03/01 11:41:25;;;;;;;;;;;4.10;99.90;;;3.34;36.33;96541.34;10451948;28;1860;-73
2022/03/01 11:46:28;;;;;;;;;;;4.00;99.90;;;3.57;34.54;96546.19;10432155;28;1929;-73
2022/03/01 11:51:32;;;;;;;;;;;4.30;93.40;;;3.61;34.66;96536.75;10438970;28;1989;-73
2022/03/01 11:56:35;;;;;;;;;;;4.40;93.20;;;3.77;33.93;96527.50;10422639;28;1912;-70
2022/03/01 12:01:38;;;;;;;;;;;4.60;99.90;;;3.92;34.64;96525.34;10420619;28;1835;-73
2022/03/01 12:06:40;;;;;;;;;;;4.70;93.60;;;4.01;32.26;96525.94;10443574;28;1814;-72
2022/03/01 12:11:44;;;;;;;;;;;4.90;99.90;;;4.01;32.06;96520.63;10442217;28;1918;-71
2022/03/01 12:16:47;;;;;;;;;;;4.80;99.90;;;4.08;33.07;96508.09;10419309;28;1853;-75
2022/03/01 12:21:50;;;;;;;;;;;5.00;99.90;;;4.13;31.88;96497.59;10423652;28;1963;-72
2022/03/01 12:26:53;;;;;;;;;;;5.10;99.90;;;4.24;32.25;96491.59;10447312;28;1833;-72
2022/03/01 12:31:56;;;;;;;;;;;5.20;99.90;;;4.42;32.35;96480.19;10443872;28;1938;-73
2022/03/01 12:37:00;;;;;;;;;;;5.20;99.90;;;4.47;31.10;96484.88;10428049;28;2111;-73
2022/03/01 12:42:04;;;;;;;;;;;5.40;95.90;;;4.40;32.04;96470.81;10429254;28;1932;-72
2022/03/01 12:47:07;;;;;;;;;;;5.30;87.60;;;4.32;33.93;96464.69;10429489;28;1940;-73
2022/03/01 12:52:13;;;;;;;;;;;5.30;89.40;;;4.46;33.71;96473.41;10424516;28;1909;-72
2022/03/01 12:57:16;;;;;;;;;;;5.30;89.10;;;4.60;32.35;96466.13;10425105;28;2133;-74
2022/03/01 13:02:19;;;;;;;;;;;5.40;95.50;;;4.65;32.35;96482.25;10423883;28;1907;-73
2022/03/01 13:07:22;;;;;;;;;;;5.50;91.70;;;4.58;31.94;96481.47;10442178;28;1897;-73
2022/03/01 13:12:25;;;;;;;;;;;5.50;90.60;;;4.54;32.25;96464.34;10439021;28;1971;-73
2022/03/01 13:17:28;;;;;;;;;;;5.50;90.60;;;4.67;34.70;96464.22;10429749;28;1801;-72
2022/03/01 13:22:31;;;;;;;;;;;5.50;93.20;;;4.68;34.15;96460.50;10426672;28;1775;-73
2022/03/01 13:27:34;;;;;;;;;;;5.60;96.00;;;4.63;34.58;96473.66;10439823;28;1895;-73
2022/03/01 13:32:36;;;;;;;;;;;5.60;98.30;;;4.63;35.09;96467.53;10421804;28;2020;-73
2022/03/01 13:37:40;;;;;;;;;;;5.60;96.60;;;4.68;34.31;96468.50;10442302;28;1781;-72
2022/03/01 13:42:45;;;;;;;;;;;5.60;94.30;;;4.71;35.42;96468.06;10444732;28;1901;-72
2022/03/01 13:47:48;;;;;;;;;;;5.60;94.90;;;4.77;35.33;96464.53;10417157;28;1589;-72
2022/03/01 13:52:51;;;;;;;;;;;5.70;96.80;;;4.73;36.29;96467.84;10419445;28;1977;-72
2022/03/01 13:57:54;;;;;;;;;;;5.70;93.30;;;4.84;35.37;96475.94;10441965;28;1921;-73
2022/03/01 14:02:58;;;;;;;;;;;5.70;92.60;;;4.87;35.71;96464.00;10439056;28;1766;-73
2022/03/01 14:08:02;;;;;;;;;;;5.70;89.30;;;4.69;35.47;96467.47;10430822;28;1885;-73
2022/03/01 14:13:05;;;;;;;;;;;5.80;87.90;;;4.71;35.30;96476.06;10416300;28;1916;-73
2022/03/01 14:18:08;;;;;;;;;;;5.60;87.40;;;4.79;34.89;96467.78;10441673;28;1793;-73
2022/03/01 14:23:11;;;;;;;;;;;5.70;87.40;;;4.82;35.26;96467.31;10435234;28;2274;-71
2022/03/01 14:28:14;;;;;;;;;;;5.60;87.20;;;4.99;35.21;96469.44;10442103;28;1864;-73
2022/03/01 14:33:17;;;;;;;;;;;5.80;87.40;;;5.02;34.91;96466.31;10446403;28;1959;-73
2022/03/01 14:38:20;;;;;;;;;;;5.80;87.20;;;4.98;34.34;96455.28;10440500;28;1920;-73
2022/03/01 14:43:23;;;;;;;;;;;5.90;96.10;;;4.93;33.91;96451.66;10444345;28;1832;-71
2022/03/01 14:48:26;;;;;;;;;;;5.80;93.50;;;4.78;33.66;96463.50;10443841;28;1773;-74
2022/03/01 14:53:29;;;;;;;;;;;5.80;91.50;;;4.78;34.79;96460.03;10435591;28;1891;-72
2022/03/01 14:58:33;;;;;;;;;;;5.70;92.50;;;4.77;36.43;96456.53;10446714;28;1742;-73
2022/03/01 15:03:36;;;;;;;;;;;5.80;93.80;;;4.69;38.37;96474.63;10429323;28;2006;-73
2022/03/01 15:08:41;;;;;;;;;;;5.70;95.50;;;4.66;38.95;96456.44;10444351;28;1853;-73
2022/03/01 15:13:44;;;;;;;;;;;5.60;96.00;;;4.55;39.16;96455.31;10447199;28;1918;-72
2022/03/01 15:18:48;;;;;;;;;;;5.60;96.70;;;4.49;40.14;96461.50;10448229;28;1850;-73
2022/03/01 15:23:51;;;;;;;;;;;5.40;97.70;;;4.52;40.19;96458.41;10478686;28;1845;-74
2022/03/01 15:28:55;;;;;;;;;;;5.40;97.40;;;4.38;41.12;96465.69;10461603;28;1894;-72
2022/03/01 15:33:58;;;;;;;;;;;5.40;98.10;;;4.37;41.90;96473.88;10428433;28;1914;-72
2022/03/01 15:39:02;;;;;;;;;;;5.30;99.50;;;4.24;41.86;96464.97;10447178;28;1877;-73
2022/03/01 15:44:06;;;;;;;;;;;5.30;99.20;;;4.13;42.44;96476.31;10416556;28;1931;-73
2022/03/01 15:49:10;;;;;;;;;;;5.10;99.30;;;4.04;42.42;96480.28;10422033;28;1865;-73
2022/03/01 15:54:14;;;;;;;;;;;5.00;99.40;;;4.02;43.20;96487.66;10444530;28;1918;-74
2022/03/01 15:59:17;;;;;;;;;;;5.00;99.90;;;3.91;43.58;96475.03;10422268;28;2247;-72
2022/03/01 16:04:21;;;;;;;;;;;4.90;99.90;;;3.79;44.29;96473.06;10420258;28;1858;-72
2022/03/01 16:09:24;;;;;;;;;;;4.90;99.90;;;3.78;44.10;96482.06;10439005;28;1838;-74
2022/03/01 16:14:28;;;;;;;;;;;4.80;99.90;;;3.72;43.70;96482.91;10451521;28;1891;-73
2022/03/01 16:19:32;;;;;;;;;;;4.70;99.90;;;3.59;44.83;96472.34;10454045;28;1931;-73
2022/03/01 16:24:35;;;;;;;;;;;4.60;99.90;;;3.52;43.63;96467.06;10437346;28;1829;-72
2022/03/01 16:29:38;;;;;;;;;;;4.60;99.90;;;3.50;43.18;96463.81;10434420;28;1925;-73
2022/03/01 16:34:43;;;;;;;;;;;4.50;99.90;;;3.43;42.96;96464.84;10450018;28;1910;-72
2022/03/01 16:39:46;;;;;;;;;;;4.40;99.60;;;3.27;44.18;96463.50;10435889;28;1856;-73
2022/03/01 16:44:51;;;;;;;;;;;4.40;99.90;;;3.10;43.75;96463.16;10440438;28;1841;-72
2022/03/01 16:49:54;;;;;;;;;;;4.20;99.70;;;3.04;43.50;96473.78;10439526;28;1884;-72
2022/03/01 16:54:58;;;;;;;;;;;4.10;99.50;;;3.00;43.97;96473.41;10431171;28;1973;-72
2022/03/01 17:00:01;;;;;;;;;;;4.00;99.60;;;2.90;43.31;96473.84;10431464;28;1972;-73
2022/03/01 17:05:06;;;;;;;;;;;3.90;99.20;;;2.75;43.06;96475.09;10434583;28;1875;-72
2022/03/01 17:10:09;;;;;;;;;;;3.80;98.40;;;2.52;43.97;96479.00;10427076;28;1851;-74
2022/03/01 17:15:13;;;;;;;;;;;3.70;99.10;;;2.20;43.45;96491.25;10430458;28;2340;-73
2022/03/01 17:20:16;;;;;;;;;;;3.50;98.40;;;2.09;43.83;96487.34;10436641;28;1832;-73
2022/03/01 17:25:20;;;;;;;;;;;3.20;98.60;;;2.02;43.67;96502.44;10434398;28;1865;-72
2022/03/01 17:30:23;;;;;;;;;;;3.20;99.10;;;1.69;45.30;96512.16;10466003;28;1769;-73
2022/03/01 17:35:27;;;;;;;;;;;2.90;99.80;;;1.55;45.68;96509.47;10436017;28;1910;-72
2022/03/01 17:40:47;;;;;;;;;;;2.80;99.90;;;1.73;45.19;96518.72;10514548;22;2621;-69
2022/03/01 17:45:50;;;;;;;;;;;2.70;99.90;;;2.02;44.31;96528.97;10496906;28;1915;-71
2022/03/01 17:50:53;;;;;;;;;;;2.90;99.90;;;1.94;44.92;96521.22;10506838;28;1838;-71
2022/03/01 17:55:57;;;;;;;;;;;2.90;99.90;;;1.87;44.63;96521.19;10514350;28;1914;-71
2022/03/01 18:01:00;;;;;;;;;;;2.90;99.90;;;1.69;45.51;96522.78;10510056;28;1928;-71
2022/03/01 18:06:03;;;;;;;;;;;2.80;99.90;;;1.50;45.69;96519.03;10520700;28;1830;-70
2022/03/01 18:11:07;;;;;;;;;;;2.60;99.90;;;1.27;46.36;96520.19;10516171;28;2196;-70
2022/03/01 18:16:10;;;;;;;;;;;2.40;99.90;;;1.32;46.44;96527.53;10522272;28;1978;-70
2022/03/01 18:21:13;;;;;;;;;;;2.30;99.90;;;1.29;46.85;96518.16;10521342;28;2046;-70
2022/03/01 18:26:18;;;;;;;;;;;2.30;99.90;;;1.06;46.64;96521.06;10507518;28;2114;-70
2022/03/01 18:31:21;;;;;;;;;;;2.20;99.90;;;1.09;46.46;96519.88;10523496;28;1887;-71
2022/03/01 18:36:24;;;;;;;;;;;2.10;99.90;;;0.68;48.05;96519.81;10526150;28;1910;-70
2022/03/01 18:41:27;;;;;;;;;;;2.00;97.90;;;0.72;48.41;96519.25;10522954;28;2212;-70
2022/03/01 18:46:32;;;;;;;;;;;1.80;99.90;;;0.56;48.60;96516.06;10524617;28;1952;-70
2022/03/01 18:51:40;;;;;;;;;;;1.70;99.90;;;0.60;49.72;96517.34;10519797;28;1819;-71
2022/03/01 18:56:43;;;;;;;;;;;1.80;99.90;;;0.31;49.67;96513.84;10525068;28;1939;-71
2022/03/01 19:01:46;;;;;;;;;;;1.60;99.20;;;0.54;49.09;96509.16;10539127;28;1712;-71
2022/03/01 19:06:50;;;;;;;;;;;1.50;99.20;;;0.49;49.37;96500.97;10515005;28;1941;-71
2022/03/01 19:11:54;;;;;;;;;;;1.60;99.80;;;0.60;49.80;96496.16;10519777;28;1877;-70
2022/03/01 19:16:57;;;;;;;;;;;1.60;99.90;;;0.49;49.07;96505.44;10516252;28;1960;-71
2022/03/01 19:22:01;;;;;;;;;;;1.60;99.70;;;0.30;49.89;96506.91;10522143;28;1849;-70
2022/03/01 19:27:04;;;;;;;;;;;1.40;99.90;;;0.40;50.58;96510.06;10523887;28;1802;-71
2022/03/01 19:32:07;;;;;;;;;;;1.40;99.90;;;0.04;51.91;96517.28;10520141;28;1759;-71
2022/03/01 19:37:10;;;;;;;;;;;1.30;99.90;;;0.09;51.09;96514.88;10508467;28;1926;-68
2022/03/01 19:42:16;;;;;;;;;;;1.10;99.90;;;0.03;52.17;96515.63;10516357;28;1809;-69
2022/03/01 19:47:19;;;;;;;;;;;1.10;99.90;;;-0.03;52.02;96518.03;10506036;28;1810;-70
2022/03/01 19:52:23;;;;;;;;;;;1.00;99.90;;;-0.17;52.55;96508.34;10528761;28;1709;-71
2022/03/01 19:57:26;;;;;;;;;;;1.00;99.90;;;-0.20;52.69;96516.63;10506586;28;1910;-71
2022/03/01 20:02:29;;;;;;;;;;;0.90;99.90;;;-0.37;53.87;96517.88;10528505;28;1835;-71
2022/03/01 20:07:38;;;;;;;;;;;0.80;99.90;;;-0.36;54.60;96508.97;10513503;28;1939;-73
2022/03/01 20:12:42;;;;;;;;;;;0.80;99.90;;;-0.21;53.61;96509.72;10529671;28;1798;-71
2022/03/01 20:17:45;;;;;;;;;;;0.80;99.90;;;-0.28;53.83;96508.81;10506331;28;1910;-70
2022/03/01 20:22:50;;;;;;;;;;;0.70;99.90;;;-0.45;53.94;96513.50;10519960;28;1869;-71
2022/03/01 20:27:53;;;;;;;;;;;0.80;99.90;;;-0.45;54.04;96507.41;10516115;28;1831;-69
2022/03/01 20:32:57;;;;;;;;;;;0.70;99.90;;;-0.50;54.31;96507.19;10521625;28;1910;-69
2022/03/01 20:38:01;;;;;;;;;;;0.60;99.90;;;-0.60;55.06;96505.63;10506477;28;1775;-71
2022/03/01 20:43:04;;;;;;;;;;;0.60;99.90;;;-0.48;54.77;96498.06;10509994;28;2198;-71
2022/03/01 20:48:11;;;;;;;;;;;0.60;99.90;;;-0.62;54.99;96502.38;10512171;28;1893;-71
2022/03/01 20:53:15;;;;;;;;;;;0.60;99.90;;;-0.64;55.83;96485.88;10520799;28;1969;-70
2022/03/01 20:58:19;;;;;;;;;;;0.50;99.90;;;-0.62;55.56;96486.53;10500620;28;1805;-70
2022/03/01 21:03:22;;;;;;;;;;;0.50;99.90;;;-0.74;55.94;96468.72;10522636;28;1812;-70
2022/03/01 21:08:25;;;;;;;;;;;0.40;99.90;;;-0.87;56.78;96461.47;10523164;28;1948;-69
2022/03/01 21:13:31;;;;;;;;;;;0.50;99.90;;;-1.05;57.44;96464.50;10502137;28;2011;-71
2022/03/01 21:18:34;;;;;;;;;;;0.30;99.90;;;-0.97;57.80;96458.28;10532478;28;1848;-71
2022/03/01 21:23:38;;;;;;;;;;;0.10;99.90;;;-1.09;58.36;96477.22;10502435;28;1934;-70
2022/03/01 21:28:42;;;;;;;;;;;0.20;99.90;;;-1.17;58.40;96461.50;10549012;28;1861;-71
2022/03/01 21:33:46;;;;;;;;;;;0.10;99.90;;;-1.36;59.94;96459.41;10538965;28;1991;-70
2022/03/01 21:38:52;;;;;;;;;;;0.00;99.90;;;-1.22;58.69;96453.31;10546963;28;1819;-71
2022/03/01 21:43:56;;;;;;;;;;;-0.10;99.90;;;-1.16;59.39;96455.22;10563325;28;1838;-71
2022/03/01 21:49:00;;;;;;;;;;;0.00;99.90;;;-1.26;59.65;96444.13;10561340;28;1902;-71
2022/03/01 21:54:03;;;;;;;;;;;-0.10;99.90;;;-1.39;61.81;96436.06;10560510;28;1943;-71
2022/03/01 21:59:07;;;;;;;;;;;-0.10;99.90;;;-1.47;61.13;96434.31;10537965;28;1862;-71
2022/03/01 22:04:11;;;;;;;;;;;-0.20;99.90;;;-1.34;60.47;96438.94;10551880;28;1691;-71
2022/03/01 22:09:15;;;;;;;;;;;-0.20;99.90;;;-1.51;62.46;96443.59;10539878;28;2057;-70
2022/03/01 22:14:19;;;;;;;;;;;-0.30;99.90;;;-1.77;64.23;96428.22;10518253;28;1905;-69
2022/03/01 22:19:22;;;;;;;;;;;-0.40;99.90;;;-1.79;63.79;96419.66;10532503;28;1873;-69
2022/03/01 22:24:26;;;;;;;;;;;-0.50;99.90;;;-1.86;65.32;96417.94;10510502;28;1822;-69
2022/03/01 22:29:29;;;;;;;;;;;-0.60;99.90;;;-1.98;65.80;96426.25;10537745;28;2012;-71
2022/03/01 22:34:33;;;;;;;;;;;-0.70;99.90;;;-2.09;65.86;96425.91;10529785;28;1997;-70
2022/03/01 22:39:35;;;;;;;;;;;-0.80;99.90;;;-2.14;66.41;96420.34;10511373;28;1855;-70
2022/03/01 22:44:39;;;;;;;;;;;-0.80;99.90;;;-2.21;67.07;96428.13;10500806;28;2170;-71
2022/03/01 22:49:42;;;;;;;;;;;-0.90;99.90;;;-2.28;67.20;96428.03;10507618;28;1894;-70
2022/03/01 22:54:45;;;;;;;;;;;-1.00;99.90;;;-2.31;67.58;96425.72;10514112;28;1910;-69
2022/03/01 22:59:49;;;;;;;;;;;-1.00;99.90;;;-2.36;68.73;96417.53;10516096;28;1741;-70
2022/03/01 23:04:53;;;;;;;;;;;-1.10;99.90;;;-2.45;68.95;96423.88;10518404;28;1834;-69
2022/03/01 23:09:56;;;;;;;;;;;-1.10;99.90;;;-2.45;68.73;96415.97;10515587;28;1934;-69
2022/03/01 23:15:00;;;;;;;;;;;-1.20;99.90;;;-2.52;69.24;96415.88;10514265;28;1922;-69
2022/03/01 23:20:03;;;;;;;;;;;-1.20;99.90;;;-2.57;68.83;96417.38;10526852;28;1785;-71
2022/03/01 23:25:06;;;;;;;;;;;-1.30;99.90;;;-2.58;69.62;96421.03;10501581;28;1914;-70
2022/03/01 23:30:09;;;;;;;;;;;-1.30;99.90;;;-2.65;70.31;96425.34;10500320;28;1886;-71
2022/03/01 23:35:13;;;;;;;;;;;-1.40;99.90;;;-2.74;72.01;96424.56;10520920;28;1939;-70
2022/03/01 23:40:16;;;;;;;;;;;-1.40;99.90;;;-2.83;72.74;96426.44;10493453;28;1842;-71
2022/03/01 23:45:19;;;;;;;;;;;-1.50;99.90;;;-2.85;72.70;96423.19;10511610;22;2341;-84
2022/03/01 23:50:22;;;;;;;;;;;-1.60;99.90;;;-2.74;71.23;96414.84;10534554;28;1777;-84
